Time;durP1;ratioP1;P1;durP2;ratioP2;P2;SDS_P1;SDS_P2;PMS_P1;PMS_P2;Temp;Humidity;BMP_temperature;BMP_pressure;BME280_temperature;BME280_humidity;BME280_pressure;Samples;Min_cycle;Max_cycle;Signal;HPM_P1;HPM_P2
2023/05/19 00:00:30;;;;;;;;;;;;;;;;;;6165071;23;20376;-92
2023/05/19 00:02:56;;;;;;;;;;;;;;;;;;6164540;23;19990;-92
2023/05/19 00:05:23;;;;;;;;;;;;;;;;;;6216394;23;19943;-91
2023/05/19 00:07:49;;;;;;;;;;;;;;;;;;6164611;23;19927;-91
2023/05/19 00:10:15;;;;;;;;;;;;;;;;;;6188728;23;19920;-92
2023/05/19 00:12:41;;;;;;;;;;;;;;;;;;6189401;23;19922;-91
2023/05/19 00:15:07;;;;;;;;;;;;;;;;;;6164732;23;19991;-93
2023/05/19 00:17:33;;;;;;;;;;;;;;;;;;6189262;23;19951;-92
2023/05/19 00:19:59;;;;;;;;;;;;;;;;;;6216125;23;19916;-91
2023/05/19 00:22:26;;;;;;;;;;;;;;;;;;6164348;23;20353;-90
2023/05/19 00:24:52;;;;;;;;;;;;;;;;;;6189355;23;20012;-91
2023/05/19 00:27:20;;;;;;;;;;;;;;;;;;6189385;23;20185;-92
2023/05/19 00:29:46;;;;;;;;;;;;;;;;;;6189958;23;20076;-92
2023/05/19 00:32:12;;;;;;;;;;;;;;;;;;6164446;23;19927;-91
2023/05/19 00:34:38;;;;;;;;;;;;;;;;;;6163788;23;20354;-93
2023/05/19 00:37:04;;;;;;;;;;;;;;;;;;6188915;23;19939;-92
2023/05/19 00:39:30;;;;;;;;;;;;;;;;;;6188801;23;19923;-92
2023/05/19 00:41:56;;;;;;;;;;;;;;;;;;6164112;23;19959;-92
2023/05/19 00:44:22;;;;;;;;;;;;;;;;;;6164364;23;20281;-92
2023/05/19 00:46:48;;;;;;;;;;;;;;;;;;6188930;23;19916;-90
2023/05/19 00:49:14;;;;;;;;;;;;;;;;;;6188399;23;19916;-90
2023/05/19 00:51:39;;;;;;;;;;;;;;;;;;6189070;23;20352;-91
2023/05/19 00:54:05;;;;;;;;;;;;;;;;;;6188700;23;19927;-93
2023/05/19 00:56:31;;;;;;;;;;;;;;;;;;6189340;23;19987;-94
2023/05/19 00:58:57;;;;;;;;;;;;;;;;;;6189961;23;20265;-94
2023/05/19 01:01:25;;;;;;;;;;;;;;;;;;6165014;23;20330;-92
2023/05/19 01:03:51;;;;;;;;;;;;;;;;;;6188742;23;20325;-92
2023/05/19 01:06:20;;;;;;;;;;;;;;;;;;6164113;23;19915;-94
2023/05/19 01:08:46;;;;;;;;;;;;;;;;;;6164854;23;19927;-91
2023/05/19 01:11:12;;;;;;;;;;;;;;;;;;6216127;23;19931;-93
2023/05/19 01:13:38;;;;;;;;;;;;;;;;;;6164563;23;19984;-93
2023/05/19 01:16:07;;;;;;;;;;;;;;;;;;6189181;23;20046;-94
2023/05/19 01:18:33;;;;;;;;;;;;;;;;;;6164661;23;19916;-93
2023/05/19 01:20:59;;;;;;;;;;;;;;;;;;6165351;23;19920;-92
2023/05/19 01:23:25;;;;;;;;;;;;;;;;;;6190954;23;19927;-91
2023/05/19 01:25:51;;;;;;;;;;;;;;;;;;6191289;23;19922;-93
2023/05/19 01:28:19;;;;;;;;;;;;;;;;;;6166322;23;19940;-93
2023/05/19 01:30:44;;;;;;;;;;;;;;;;;;6166798;23;19955;-92
2023/05/19 01:33:12;;;;;;;;;;;;;;;;;;6166013;23;19974;-91
2023/05/19 01:35:38;;;;;;;;;;;;;;;;;;6190560;23;19947;-91
2023/05/19 01:38:05;;;;;;;;;;;;;;;;;;6166397;23;20339;-94
2023/05/19 01:40:30;;;;;;;;;;;;;;;;;;6166862;23;19916;-93
2023/05/19 01:42:56;;;;;;;;;;;;;;;;;;6218024;23;19974;-91
2023/05/19 01:45:22;;;;;;;;;;;;;;;;;;6166521;23;19931;-92
2023/05/19 01:47:48;;;;;;;;;;;;;;;;;;6191628;23;19920;-93
2023/05/19 01:50:14;;;;;;;;;;;;;;;;;;6191832;23;19922;-94
2023/05/19 01:52:40;;;;;;;;;;;;;;;;;;6190808;23;19938;-94
2023/05/19 01:55:06;;;;;;;;;;;;;;;;;;6191024;23;19926;-93
2023/05/19 01:57:32;;;;;;;;;;;;;;;;;;6190941;23;20203;-92
2023/05/19 01:59:58;;;;;;;;;;;;;;;;;;6191719;23;19922;-94
2023/05/19 02:02:24;;;;;;;;;;;;;;;;;;6217944;23;19920;-94
2023/05/19 02:04:50;;;;;;;;;;;;;;;;;;6191258;23;20249;-93
2023/05/19 02:07:16;;;;;;;;;;;;;;;;;;6166484;23;19931;-93
2023/05/19 02:09:41;;;;;;;;;;;;;;;;;;6191383;23;20326;-94
2023/05/19 02:12:07;;;;;;;;;;;;;;;;;;6166315;23;19923;-92
2023/05/19 02:14:33;;;;;;;;;;;;;;;;;;6190913;23;20222;-93
2023/05/19 02:16:59;;;;;;;;;;;;;;;;;;6166308;23;20354;-94
2023/05/19 02:19:25;;;;;;;;;;;;;;;;;;6166551;23;19919;-93
2023/05/19 02:21:53;;;;;;;;;;;;;;;;;;6165924;23;19920;-93
2023/05/19 02:24:19;;;;;;;;;;;;;;;;;;6217219;23;20326;-92
2023/05/19 02:26:44;;;;;;;;;;;;;;;;;;6165275;23;19916;-92
2023/05/19 02:29:10;;;;;;;;;;;;;;;;;;6165091;23;20404;-92
2023/05/19 02:31:37;;;;;;;;;;;;;;;;;;6190128;23;20002;-93
2023/05/19 02:34:02;;;;;;;;;;;;;;;;;;6190851;23;19947;-92
2023/05/19 02:36:28;;;;;;;;;;;;;;;;;;6190886;23;20341;-93
2023/05/19 02:38:55;;;;;;;;;;;;;;;;;;6191088;23;19915;-92
2023/05/19 02:41:21;;;;;;;;;;;;;;;;;;6165531;23;19927;-92
2023/05/19 02:43:46;;;;;;;;;;;;;;;;;;6166539;23;20001;-93
2023/05/19 02:46:12;;;;;;;;;;;;;;;;;;6191039;23;19916;-92
2023/05/19 02:48:38;;;;;;;;;;;;;;;;;;6166103;23;20318;-92
2023/05/19 02:51:04;;;;;;;;;;;;;;;;;;6217463;23;19981;-92
2023/05/19 02:53:30;;;;;;;;;;;;;;;;;;6165649;23;19955;-94
2023/05/19 02:55:56;;;;;;;;;;;;;;;;;;6191026;23;19927;-93
2023/05/19 02:58:22;;;;;;;;;;;;;;;;;;6190426;23;19916;-93
2023/05/19 03:00:48;;;;;;;;;;;;;;;;;;6190579;23;19916;-91
2023/05/19 03:03:14;;;;;;;;;;;;;;;;;;6165343;23;20019;-92
2023/05/19 03:05:40;;;;;;;;;;;;;;;;;;6189783;23;20338;-91
2023/05/19 03:08:06;;;;;;;;;;;;;;;;;;6165209;23;19927;-92
2023/05/19 03:10:32;;;;;;;;;;;;;;;;;;6165338;23;19923;-92
2023/05/19 03:12:58;;;;;;;;;;;;;;;;;;6189779;23;19923;-92
2023/05/19 03:15:23;;;;;;;;;;;;;;;;;;6216557;23;19943;-92
2023/05/19 03:17:50;;;;;;;;;;;;;;;;;;6190428;23;19947;-92
2023/05/19 03:20:16;;;;;;;;;;;;;;;;;;6190540;23;19920;-92
2023/05/19 03:22:42;;;;;;;;;;;;;;;;;;6165336;23;19916;-93
2023/05/19 03:25:08;;;;;;;;;;;;;;;;;;6190590;23;19927;-92
2023/05/19 03:27:34;;;;;;;;;;;;;;;;;;6190018;23;19916;-92
2023/05/19 03:30:00;;;;;;;;;;;;;;;;;;6216679;23;19923;-91
2023/05/19 03:32:26;;;;;;;;;;;;;;;;;;6189669;23;19920;-92
2023/05/19 03:34:52;;;;;;;;;;;;;;;;;;6216916;23;19916;-93
2023/05/19 03:37:18;;;;;;;;;;;;;;;;;;6190015;23;20363;-91
2023/05/19 03:39:43;;;;;;;;;;;;;;;;;;6216748;23;19923;-92
2023/05/19 03:42:09;;;;;;;;;;;;;;;;;;6189201;23;20035;-92
2023/05/19 03:44:35;;;;;;;;;;;;;;;;;;6189705;23;19951;-92
2023/05/19 03:47:01;;;;;;;;;;;;;;;;;;6164849;23;19923;-92
2023/05/19 03:49:27;;;;;;;;;;;;;;;;;;6189750;23;20524;-93
2023/05/19 03:51:53;;;;;;;;;;;;;;;;;;6189981;23;20289;-93
2023/05/19 03:54:21;;;;;;;;;;;;;;;;;;6189646;23;19974;-92
2023/05/19 03:56:47;;;;;;;;;;;;;;;;;;6164651;23;19916;-92
2023/05/19 03:59:13;;;;;;;;;;;;;;;;;;6189914;23;19916;-91
2023/05/19 04:01:39;;;;;;;;;;;;;;;;;;6164952;23;19920;-93
2023/05/19 04:04:04;;;;;;;;;;;;;;;;;;6189291;23;20326;-91
2023/05/19 04:06:30;;;;;;;;;;;;;;;;;;6189590;23;19927;-92
2023/05/19 04:08:56;;;;;;;;;;;;;;;;;;6216608;23;20340;-93
2023/05/19 04:11:22;;;;;;;;;;;;;;;;;;6189559;23;19971;-92
2023/05/19 04:13:48;;;;;;;;;;;;;;;;;;6189525;23;20334;-91
2023/05/19 04:16:14;;;;;;;;;;;;;;;;;;6164527;23;19916;-92
2023/05/19 04:18:41;;;;;;;;;;;;;;;;;;6164624;23;19926;-93
2023/05/19 04:21:07;;;;;;;;;;;;;;;;;;6189249;23;20246;-91
2023/05/19 04:23:33;;;;;;;;;;;;;;;;;;6189116;23;20241;-92
2023/05/19 04:26:00;;;;;;;;;;;;;;;;;;6189515;23;19916;-91
2023/05/19 04:28:26;;;;;;;;;;;;;;;;;;6190835;23;19955;-94
2023/05/19 04:30:52;;;;;;;;;;;;;;;;;;6189505;23;19974;-94
2023/05/19 04:33:18;;;;;;;;;;;;;;;;;;6165311;23;19932;-94
2023/05/19 04:35:44;;;;;;;;;;;;;;;;;;6189640;23;19947;-93
2023/05/19 04:38:10;;;;;;;;;;;;;;;;;;6165022;23;19915;-93
2023/05/19 04:40:36;;;;;;;;;;;;;;;;;;6190055;23;19962;-93
2023/05/19 04:43:02;;;;;;;;;;;;;;;;;;6189864;23;19924;-94
2023/05/19 04:45:28;;;;;;;;;;;;;;;;;;6164741;23;19916;-93
2023/05/19 04:47:56;;;;;;;;;;;;;;;;;;6189896;23;19938;-93
2023/05/19 04:50:22;;;;;;;;;;;;;;;;;;6216200;23;19916;-93
2023/05/19 04:52:51;;;;;;;;;;;;;;;;;;6190238;23;20267;-96
2023/05/19 04:55:17;;;;;;;;;;;;;;;;;;6190224;23;19919;-94
2023/05/19 04:57:43;;;;;;;;;;;;;;;;;;6216520;23;20237;-94
2023/05/19 05:00:13;;;;;;;;;;;;;;;;;;6190121;23;20329;-95
2023/05/19 05:02:40;;;;;;;;;;;;;;;;;;6197228;23;19919;-95
2023/05/19 05:05:06;;;;;;;;;;;;;;;;;;6191040;23;19930;-94
2023/05/19 05:07:31;;;;;;;;;;;;;;;;;;6165067;23;19991;-93
2023/05/19 05:09:57;;;;;;;;;;;;;;;;;;6167761;23;19960;-93
2023/05/19 05:12:23;;;;;;;;;;;;;;;;;;6215920;23;19915;-92
2023/05/19 05:17:51;;;;;;;;;;;;;;;;;;6112213;23;20266;-90
2023/05/19 05:20:18;;;;;;;;;;;;;;;;;;6154445;23;19928;-90
2023/05/19 05:22:44;;;;;;;;;;;;;;;;;;6129441;23;19932;-91
2023/05/19 05:25:10;;;;;;;;;;;;;;;;;;6130829;23;19995;-88
2023/05/19 05:27:36;;;;;;;;;;;;;;;;;;6129913;23;19917;-92
2023/05/19 05:30:05;;;;;;;;;;;;;;;;;;6129777;23;19964;-92
2023/05/19 05:32:32;;;;;;;;;;;;;;;;;;6132455;23;20282;-90
2023/05/19 05:34:58;;;;;;;;;;;;;;;;;;6129817;23;20214;-91
2023/05/19 05:37:23;;;;;;;;;;;;;;;;;;6129772;23;19931;-91
2023/05/19 05:39:49;;;;;;;;;;;;;;;;;;6155613;23;19923;-90
2023/05/19 05:42:15;;;;;;;;;;;;;;;;;;6129725;23;19956;-91
2023/05/19 05:44:41;;;;;;;;;;;;;;;;;;6155616;23;19948;-91
2023/05/19 05:47:07;;;;;;;;;;;;;;;;;;6130033;23;20347;-92
2023/05/19 05:49:36;;;;;;;;;;;;;;;;;;6130455;23;19971;-91
2023/05/19 05:52:02;;;;;;;;;;;;;;;;;;6129748;23;20362;-91
2023/05/19 05:54:28;;;;;;;;;;;;;;;;;;6130842;23;19916;-91
2023/05/19 05:56:54;;;;;;;;;;;;;;;;;;6143440;23;19921;-91
2023/05/19 05:59:20;;;;;;;;;;;;;;;;;;6153339;23;19961;-91
2023/05/19 06:01:46;;;;;;;;;;;;;;;;;;6177619;23;19908;-91
2023/05/19 06:04:12;;;;;;;;;;;;;;;;;;6151424;23;19955;-91
2023/05/19 06:06:38;;;;;;;;;;;;;;;;;;6153680;23;19919;-92
2023/05/19 06:09:04;;;;;;;;;;;;;;;;;;6154652;23;19940;-94
2023/05/19 06:11:30;;;;;;;;;;;;;;;;;;6135686;23;19916;-93
2023/05/19 06:13:56;;;;;;;;;;;;;;;;;;6131756;23;20246;-93
2023/05/19 06:16:22;;;;;;;;;;;;;;;;;;6130940;23;19944;-93
2023/05/19 06:18:48;;;;;;;;;;;;;;;;;;6131717;23;19967;-94
2023/05/19 06:21:14;;;;;;;;;;;;;;;;;;6131090;23;19929;-92
2023/05/19 06:23:40;;;;;;;;;;;;;;;;;;6156227;23;19943;-93
2023/05/19 06:26:06;;;;;;;;;;;;;;;;;;6156223;23;19932;-93
2023/05/19 06:28:31;;;;;;;;;;;;;;;;;;6131697;23;20004;-94
2023/05/19 06:30:58;;;;;;;;;;;;;;;;;;6131528;23;20235;-93
2023/05/19 06:33:24;;;;;;;;;;;;;;;;;;6131285;23;19917;-93
2023/05/19 06:35:50;;;;;;;;;;;;;;;;;;6155497;23;19932;-93
2023/05/19 06:38:16;;;;;;;;;;;;;;;;;;6131025;23;19954;-93
2023/05/19 06:40:42;;;;;;;;;;;;;;;;;;6130724;23;19924;-93
2023/05/19 06:43:08;;;;;;;;;;;;;;;;;;6130844;23;19932;-94
2023/05/19 06:45:34;;;;;;;;;;;;;;;;;;6130372;23;19992;-94
2023/05/19 06:48:00;;;;;;;;;;;;;;;;;;6155566;23;19924;-93
2023/05/19 06:50:26;;;;;;;;;;;;;;;;;;6130850;23;19924;-93
2023/05/19 06:52:52;;;;;;;;;;;;;;;;;;6129671;23;19968;-93
2023/05/19 06:55:18;;;;;;;;;;;;;;;;;;6155359;23;19920;-93
2023/05/19 06:57:43;;;;;;;;;;;;;;;;;;6130128;23;20301;-93
2023/05/19 07:00:11;;;;;;;;;;;;;;;;;;6129770;23;19916;-92
2023/05/19 07:02:37;;;;;;;;;;;;;;;;;;6154681;23;20298;-93
2023/05/19 07:05:02;;;;;;;;;;;;;;;;;;6130068;23;20054;-92
2023/05/19 07:07:29;;;;;;;;;;;;;;;;;;6130118;23;19916;-93
2023/05/19 07:09:55;;;;;;;;;;;;;;;;;;6130430;23;19948;-93
2023/05/19 07:12:21;;;;;;;;;;;;;;;;;;6156147;23;19963;-93
2023/05/19 07:14:46;;;;;;;;;;;;;;;;;;6129912;23;19923;-93
2023/05/19 07:17:13;;;;;;;;;;;;;;;;;;6130622;23;20354;-92
2023/05/19 07:19:39;;;;;;;;;;;;;;;;;;6129982;23;20188;-93
2023/05/19 07:22:05;;;;;;;;;;;;;;;;;;6129817;23;19927;-93
2023/05/19 07:24:31;;;;;;;;;;;;;;;;;;6156294;23;19952;-93
2023/05/19 07:26:57;;;;;;;;;;;;;;;;;;6156008;23;19924;-92
2023/05/19 07:29:23;;;;;;;;;;;;;;;;;;6129720;23;20240;-92
2023/05/19 07:31:52;;;;;;;;;;;;;;;;;;6154852;23;20066;-93
2023/05/19 07:34:18;;;;;;;;;;;;;;;;;;6129357;23;20327;-93
2023/05/19 07:36:45;;;;;;;;;;;;;;;;;;6129228;23;19991;-93
2023/05/19 07:39:10;;;;;;;;;;;;;;;;;;6129999;23;20180;-93
2023/05/19 07:41:36;;;;;;;;;;;;;;;;;;6129204;23;20386;-92
2023/05/19 07:44:06;;;;;;;;;;;;;;;;;;6129310;23;19948;-94
2023/05/19 07:46:32;;;;;;;;;;;;;;;;;;6129134;23;19971;-93
2023/05/19 07:48:58;;;;;;;;;;;;;;;;;;6154642;23;19972;-93
2023/05/19 07:51:24;;;;;;;;;;;;;;;;;;6129540;23;19921;-93
2023/05/19 07:53:50;;;;;;;;;;;;;;;;;;6129678;23;19916;-92
2023/05/19 07:56:16;;;;;;;;;;;;;;;;;;6129394;23;20363;-94
2023/05/19 07:58:42;;;;;;;;;;;;;;;;;;6129582;23;19944;-93
2023/05/19 08:01:08;;;;;;;;;;;;;;;;;;6129036;23;19935;-93
2023/05/19 08:03:33;;;;;;;;;;;;;;;;;;6153822;23;19927;-94
2023/05/19 08:06:00;;;;;;;;;;;;;;;;;;6155618;23;20319;-93
2023/05/19 08:08:26;;;;;;;;;;;;;;;;;;6129308;23;19923;-93
2023/05/19 08:10:52;;;;;;;;;;;;;;;;;;6155410;23;19917;-93
2023/05/19 08:13:18;;;;;;;;;;;;;;;;;;6129326;23;19916;-93
2023/05/19 08:15:44;;;;;;;;;;;;;;;;;;6128970;23;19924;-93
2023/05/19 08:18:10;;;;;;;;;;;;;;;;;;6129005;23;19924;-93
2023/05/19 08:20:36;;;;;;;;;;;;;;;;;;6129578;23;20297;-93
2023/05/19 08:23:02;;;;;;;;;;;;;;;;;;6129184;23;19928;-93
2023/05/19 08:25:28;;;;;;;;;;;;;;;;;;6128830;23;20250;-95
2023/05/19 08:27:54;;;;;;;;;;;;;;;;;;6129268;23;19955;-94
2023/05/19 08:30:20;;;;;;;;;;;;;;;;;;6129224;23;19916;-94
2023/05/19 08:32:47;;;;;;;;;;;;;;;;;;6153627;23;20457;-93
2023/05/19 08:35:13;;;;;;;;;;;;;;;;;;6155645;23;19916;-93
2023/05/19 08:37:39;;;;;;;;;;;;;;;;;;6129415;23;19924;-93
2023/05/19 08:40:07;;;;;;;;;;;;;;;;;;6129541;23;19923;-93
2023/05/19 08:42:33;;;;;;;;;;;;;;;;;;6153736;23;19924;-93
2023/05/19 08:45:00;;;;;;;;;;;;;;;;;;6128937;23;19955;-94
2023/05/19 08:47:26;;;;;;;;;;;;;;;;;;6129322;23;20309;-94
2023/05/19 08:49:52;;;;;;;;;;;;;;;;;;6129538;23;19917;-91
2023/05/19 08:52:19;;;;;;;;;;;;;;;;;;6129021;23;19924;-91
2023/05/19 08:54:45;;;;;;;;;;;;;;;;;;6129409;23;20318;-92
2023/05/19 08:57:11;;;;;;;;;;;;;;;;;;6129423;23;19987;-91
2023/05/19 08:59:37;;;;;;;;;;;;;;;;;;6155629;23;19924;-91
2023/05/19 09:02:03;;;;;;;;;;;;;;;;;;6129219;23;19931;-91
2023/05/19 09:04:29;;;;;;;;;;;;;;;;;;6129488;23;19987;-91
2023/05/19 09:06:55;;;;;;;;;;;;;;;;;;6155740;23;19923;-91
2023/05/19 09:09:21;;;;;;;;;;;;;;;;;;6129075;23;19926;-90
2023/05/19 09:11:47;;;;;;;;;;;;;;;;;;6155288;23;19987;-91
2023/05/19 09:14:13;;;;;;;;;;;;;;;;;;6129307;23;20003;-92
2023/05/19 09:16:39;;;;;;;;;;;;;;;;;;6128834;23;20304;-91
2023/05/19 09:19:07;;;;;;;;;;;;;;;;;;6129309;23;19929;-91
2023/05/19 09:21:33;;;;;;;;;;;;;;;;;;6153788;23;19927;-91
2023/05/19 09:23:59;;;;;;;;;;;;;;;;;;6128771;23;19917;-90
2023/05/19 09:26:25;;;;;;;;;;;;;;;;;;6129193;23;20286;-90
2023/05/19 09:28:51;;;;;;;;;;;;;;;;;;6153669;23;19916;-90
2023/05/19 09:31:17;;;;;;;;;;;;;;;;;;6128900;23;19964;-91
2023/05/19 09:33:43;;;;;;;;;;;;;;;;;;6129141;23;19927;-91
2023/05/19 09:36:10;;;;;;;;;;;;;;;;;;6128643;23;19948;-90
2023/05/19 09:38:36;;;;;;;;;;;;;;;;;;6128741;23;19917;-90
2023/05/19 09:41:02;;;;;;;;;;;;;;;;;;6155293;23;19984;-91
2023/05/19 09:43:28;;;;;;;;;;;;;;;;;;6131190;23;19952;-91
2023/05/19 09:45:54;;;;;;;;;;;;;;;;;;6130846;23;20284;-91
2023/05/19 09:48:20;;;;;;;;;;;;;;;;;;6130606;23;19991;-94
2023/05/19 09:50:46;;;;;;;;;;;;;;;;;;6131054;23;19924;-92
2023/05/19 09:53:12;;;;;;;;;;;;;;;;;;6130675;23;19932;-93
2023/05/19 09:55:38;;;;;;;;;;;;;;;;;;6130814;23;19943;-93
2023/05/19 09:58:04;;;;;;;;;;;;;;;;;;6157234;23;19917;-93
2023/05/19 10:00:31;;;;;;;;;;;;;;;;;;6131070;23;20262;-93
2023/05/19 10:02:57;;;;;;;;;;;;;;;;;;6131108;23;19928;-94
2023/05/19 10:05:22;;;;;;;;;;;;;;;;;;6155385;23;19917;-93
2023/05/19 10:07:48;;;;;;;;;;;;;;;;;;6130510;23;19995;-93
2023/05/19 10:10:14;;;;;;;;;;;;;;;;;;6157231;23;19944;-92
2023/05/19 10:12:40;;;;;;;;;;;;;;;;;;6130447;23;20338;-93
2023/05/19 10:15:06;;;;;;;;;;;;;;;;;;6130418;23;19967;-92
2023/05/19 10:17:32;;;;;;;;;;;;;;;;;;6157491;23;20350;-93
2023/05/19 10:19:58;;;;;;;;;;;;;;;;;;6156433;23;19917;-93
2023/05/19 10:22:24;;;;;;;;;;;;;;;;;;6132626;23;19928;-93
2023/05/19 10:24:50;;;;;;;;;;;;;;;;;;6133763;23;19917;-93
2023/05/19 10:27:16;;;;;;;;;;;;;;;;;;6131346;23;19940;-93
2023/05/19 10:29:42;;;;;;;;;;;;;;;;;;6131391;23;19970;-93
2023/05/19 10:32:08;;;;;;;;;;;;;;;;;;6131638;23;19928;-93
2023/05/19 10:34:34;;;;;;;;;;;;;;;;;;6130502;23;19967;-92
2023/05/19 10:36:59;;;;;;;;;;;;;;;;;;6155885;23;19917;-93
2023/05/19 10:39:26;;;;;;;;;;;;;;;;;;6156549;23;19999;-93
2023/05/19 10:41:52;;;;;;;;;;;;;;;;;;6155289;23;19928;-93
2023/05/19 10:44:18;;;;;;;;;;;;;;;;;;6130691;23;20223;-94
2023/05/19 10:46:44;;;;;;;;;;;;;;;;;;6130279;23;19920;-93
2023/05/19 10:49:10;;;;;;;;;;;;;;;;;;6130249;23;19987;-94
2023/05/19 10:51:36;;;;;;;;;;;;;;;;;;6130628;23;20323;-93
2023/05/19 10:54:02;;;;;;;;;;;;;;;;;;6129859;23;20326;-93
2023/05/19 10:56:28;;;;;;;;;;;;;;;;;;6157161;23;19963;-93
2023/05/19 10:58:55;;;;;;;;;;;;;;;;;;6130246;23;19937;-94
2023/05/19 11:01:23;;;;;;;;;;;;;;;;;;6155010;23;19921;-92
2023/05/19 11:03:51;;;;;;;;;;;;;;;;;;6130007;23;19952;-94
2023/05/19 11:06:16;;;;;;;;;;;;;;;;;;6155121;23;19917;-93
2023/05/19 11:08:44;;;;;;;;;;;;;;;;;;6129911;23;20394;-93
2023/05/19 11:11:09;;;;;;;;;;;;;;;;;;6156467;23;19991;-92
2023/05/19 11:13:35;;;;;;;;;;;;;;;;;;6131060;23;19924;-93
2023/05/19 11:16:02;;;;;;;;;;;;;;;;;;6125356;23;19928;-92
2023/05/19 11:18:28;;;;;;;;;;;;;;;;;;6125360;23;19999;-92
2023/05/19 11:20:54;;;;;;;;;;;;;;;;;;6125303;23;19925;-92
2023/05/19 11:23:20;;;;;;;;;;;;;;;;;;6125082;23;20007;-92
2023/05/19 11:25:46;;;;;;;;;;;;;;;;;;6125110;23;19917;-91
2023/05/19 11:28:12;;;;;;;;;;;;;;;;;;6124963;23;20057;-91
2023/05/19 11:30:38;;;;;;;;;;;;;;;;;;6124778;23;20016;-91
2023/05/19 11:33:04;;;;;;;;;;;;;;;;;;6125296;23;19971;-92
2023/05/19 11:35:30;;;;;;;;;;;;;;;;;;6125269;23;20259;-92
2023/05/19 11:37:56;;;;;;;;;;;;;;;;;;6125442;23;19948;-91
2023/05/19 11:40:22;;;;;;;;;;;;;;;;;;6125401;23;19924;-92
2023/05/19 11:42:48;;;;;;;;;;;;;;;;;;6126639;23;19921;-91
2023/05/19 11:45:14;;;;;;;;;;;;;;;;;;6124708;23;19921;-92
2023/05/19 11:47:40;;;;;;;;;;;;;;;;;;6124734;23;20224;-92
2023/05/19 11:50:06;;;;;;;;;;;;;;;;;;6124793;23;19917;-92
2023/05/19 11:52:32;;;;;;;;;;;;;;;;;;6149842;23;19917;-91
2023/05/19 11:54:59;;;;;;;;;;;;;;;;;;6125033;23;19987;-91
2023/05/19 11:57:25;;;;;;;;;;;;;;;;;;6125002;23;19971;-92
2023/05/19 11:59:55;;;;;;;;;;;;;;;;;;6124684;23;19917;-91
2023/05/19 12:02:21;;;;;;;;;;;;;;;;;;6124614;23;19921;-92
2023/05/19 12:04:47;;;;;;;;;;;;;;;;;;6124077;23;19924;-92
2023/05/19 12:07:16;;;;;;;;;;;;;;;;;;6124416;23;19927;-92
2023/05/19 12:09:42;;;;;;;;;;;;;;;;;;6149783;23;19980;-91
2023/05/19 12:12:08;;;;;;;;;;;;;;;;;;6124450;23;19991;-92
2023/05/19 12:14:34;;;;;;;;;;;;;;;;;;6124707;23;20012;-92
2023/05/19 12:17:00;;;;;;;;;;;;;;;;;;6129402;23;20131;-92
2023/05/19 12:19:26;;;;;;;;;;;;;;;;;;6155982;23;19923;-91
2023/05/19 12:21:53;;;;;;;;;;;;;;;;;;6154365;23;19928;-92
2023/05/19 12:24:19;;;;;;;;;;;;;;;;;;6154668;23;19916;-91
2023/05/19 12:26:45;;;;;;;;;;;;;;;;;;6155483;23;19924;-91
2023/05/19 12:29:11;;;;;;;;;;;;;;;;;;6129674;23;19920;-93
2023/05/19 12:31:37;;;;;;;;;;;;;;;;;;6129419;23;20026;-91
2023/05/19 12:34:03;;;;;;;;;;;;;;;;;;6130055;23;20272;-91
2023/05/19 12:36:30;;;;;;;;;;;;;;;;;;6128931;23;19991;-92
2023/05/19 12:38:56;;;;;;;;;;;;;;;;;;6129224;23;20341;-92
2023/05/19 12:41:22;;;;;;;;;;;;;;;;;;6128983;23;19973;-91
2023/05/19 12:43:49;;;;;;;;;;;;;;;;;;6129176;23;19924;-92
2023/05/19 12:46:15;;;;;;;;;;;;;;;;;;6129340;23;19987;-92
2023/05/19 12:48:42;;;;;;;;;;;;;;;;;;6155765;23;19971;-92
2023/05/19 12:51:08;;;;;;;;;;;;;;;;;;6129514;23;19920;-91
2023/05/19 12:53:34;;;;;;;;;;;;;;;;;;6154759;23;19963;-91
2023/05/19 12:56:00;;;;;;;;;;;;;;;;;;6129729;23;19987;-93
2023/05/19 12:58:26;;;;;;;;;;;;;;;;;;6155995;23;19944;-92
2023/05/19 13:00:52;;;;;;;;;;;;;;;;;;6155580;23;20319;-92
2023/05/19 13:03:18;;;;;;;;;;;;;;;;;;6129111;23;19925;-93
2023/05/19 13:05:45;;;;;;;;;;;;;;;;;;6129260;23;19927;-91
2023/05/19 13:08:11;;;;;;;;;;;;;;;;;;6129456;23;19967;-92
2023/05/19 13:10:38;;;;;;;;;;;;;;;;;;6129480;23;19916;-91
2023/05/19 13:13:04;;;;;;;;;;;;;;;;;;6155773;23;19990;-93
2023/05/19 13:15:34;;;;;;;;;;;;;;;;;;6128850;23;20351;-92
2023/05/19 13:18:00;;;;;;;;;;;;;;;;;;6130061;23;19939;-92
2023/05/19 13:20:26;;;;;;;;;;;;;;;;;;6155752;23;19917;-93
2023/05/19 13:22:52;;;;;;;;;;;;;;;;;;6131577;23;19921;-92
2023/05/19 13:25:18;;;;;;;;;;;;;;;;;;6130466;23;19916;-93
2023/05/19 13:27:44;;;;;;;;;;;;;;;;;;6130342;23;19928;-93
2023/05/19 13:30:10;;;;;;;;;;;;;;;;;;6154049;23;19956;-93
2023/05/19 13:32:36;;;;;;;;;;;;;;;;;;6130068;23;19983;-93
2023/05/19 13:35:02;;;;;;;;;;;;;;;;;;6155558;23;19917;-93
2023/05/19 13:37:28;;;;;;;;;;;;;;;;;;6129720;23;19917;-92
2023/05/19 13:39:54;;;;;;;;;;;;;;;;;;6129074;23;19920;-92
2023/05/19 13:42:20;;;;;;;;;;;;;;;;;;6154421;23;19927;-93
2023/05/19 13:44:46;;;;;;;;;;;;;;;;;;6154455;23;20251;-93
2023/05/19 13:47:12;;;;;;;;;;;;;;;;;;6129284;23;19921;-93
2023/05/19 13:49:38;;;;;;;;;;;;;;;;;;6129345;23;19920;-90
2023/05/19 13:52:04;;;;;;;;;;;;;;;;;;6129210;23;19984;-92
2023/05/19 13:54:29;;;;;;;;;;;;;;;;;;6129103;23;19991;-92
2023/05/19 13:56:56;;;;;;;;;;;;;;;;;;6129248;23;19916;-92
2023/05/19 13:59:22;;;;;;;;;;;;;;;;;;6129378;23;19948;-93
2023/05/19 14:01:48;;;;;;;;;;;;;;;;;;6129139;23;19984;-92
2023/05/19 14:04:14;;;;;;;;;;;;;;;;;;6129315;23;19944;-92
2023/05/19 14:06:39;;;;;;;;;;;;;;;;;;6129230;23;19956;-91
2023/05/19 14:09:05;;;;;;;;;;;;;;;;;;6129191;23;19917;-92
2023/05/19 14:11:31;;;;;;;;;;;;;;;;;;6128942;23;19924;-90
2023/05/19 14:13:57;;;;;;;;;;;;;;;;;;6129102;23;19953;-93
2023/05/19 14:16:25;;;;;;;;;;;;;;;;;;6128737;23;19925;-92
2023/05/19 14:18:52;;;;;;;;;;;;;;;;;;6153540;23;19956;-92
2023/05/19 14:21:18;;;;;;;;;;;;;;;;;;6155209;23;19916;-91
2023/05/19 14:23:44;;;;;;;;;;;;;;;;;;6129410;23;19928;-93
2023/05/19 14:26:09;;;;;;;;;;;;;;;;;;6130052;23;19928;-92
2023/05/19 14:28:35;;;;;;;;;;;;;;;;;;6154908;23;19963;-91
2023/05/19 14:31:01;;;;;;;;;;;;;;;;;;6133807;23;19932;-92
2023/05/19 14:33:27;;;;;;;;;;;;;;;;;;6136828;23;19924;-91
2023/05/19 14:35:54;;;;;;;;;;;;;;;;;;6132158;23;19920;-92
2023/05/19 14:38:20;;;;;;;;;;;;;;;;;;6157496;23;19948;-92
2023/05/19 14:40:47;;;;;;;;;;;;;;;;;;6131517;23;19987;-92
2023/05/19 14:43:13;;;;;;;;;;;;;;;;;;6130878;23;19928;-92
2023/05/19 14:45:40;;;;;;;;;;;;;;;;;;6155438;23;19917;-91
2023/05/19 14:48:06;;;;;;;;;;;;;;;;;;6131386;23;19991;-92
2023/05/19 14:50:32;;;;;;;;;;;;;;;;;;6131476;23;19949;-92
2023/05/19 14:52:58;;;;;;;;;;;;;;;;;;6131281;23;20357;-93
2023/05/19 14:55:24;;;;;;;;;;;;;;;;;;6158427;23;19927;-92
2023/05/19 14:57:50;;;;;;;;;;;;;;;;;;6156429;23;19917;-92
2023/05/19 15:00:16;;;;;;;;;;;;;;;;;;6130563;23;19923;-92
2023/05/19 15:02:42;;;;;;;;;;;;;;;;;;6130911;23;19943;-92
2023/05/19 15:05:08;;;;;;;;;;;;;;;;;;6130323;23;19917;-93
2023/05/19 15:07:35;;;;;;;;;;;;;;;;;;6130758;23;19959;-93
2023/05/19 15:10:01;;;;;;;;;;;;;;;;;;6155711;23;19927;-91
2023/05/19 15:12:27;;;;;;;;;;;;;;;;;;6132093;23;19917;-92
2023/05/19 15:14:52;;;;;;;;;;;;;;;;;;6130834;23;19955;-91
2023/05/19 15:17:18;;;;;;;;;;;;;;;;;;6130998;23;19921;-91
2023/05/19 15:19:44;;;;;;;;;;;;;;;;;;6130821;23;19916;-92
2023/05/19 15:22:10;;;;;;;;;;;;;;;;;;6130948;23;19927;-92
2023/05/19 15:24:36;;;;;;;;;;;;;;;;;;6156117;23;19917;-94
2023/05/19 15:27:02;;;;;;;;;;;;;;;;;;6155966;23;19917;-92
2023/05/19 15:29:28;;;;;;;;;;;;;;;;;;6156619;23;19916;-94
2023/05/19 15:31:55;;;;;;;;;;;;;;;;;;6130615;23;19924;-93
2023/05/19 15:34:20;;;;;;;;;;;;;;;;;;6130497;23;19917;-93
2023/05/19 15:36:46;;;;;;;;;;;;;;;;;;6155400;23;19916;-92
2023/05/19 15:39:13;;;;;;;;;;;;;;;;;;6129989;23;20000;-93
2023/05/19 15:41:39;;;;;;;;;;;;;;;;;;6155289;23;19928;-92
2023/05/19 15:44:05;;;;;;;;;;;;;;;;;;6157345;23;19916;-92
2023/05/19 15:46:31;;;;;;;;;;;;;;;;;;6155162;23;19917;-93
2023/05/19 15:48:57;;;;;;;;;;;;;;;;;;6155354;23;19923;-93
2023/05/19 15:51:23;;;;;;;;;;;;;;;;;;6131001;23;19948;-93
2023/05/19 15:53:49;;;;;;;;;;;;;;;;;;6155467;23;19979;-93
2023/05/19 15:56:15;;;;;;;;;;;;;;;;;;6130993;23;19917;-94
2023/05/19 15:58:41;;;;;;;;;;;;;;;;;;6130131;23;19916;-93
2023/05/19 16:01:07;;;;;;;;;;;;;;;;;;6156759;23;20003;-95
2023/05/19 16:03:33;;;;;;;;;;;;;;;;;;6130420;23;20028;-93
2023/05/19 16:05:59;;;;;;;;;;;;;;;;;;6156393;23;19924;-93
2023/05/19 16:08:25;;;;;;;;;;;;;;;;;;6156468;23;19939;-93
2023/05/19 16:10:52;;;;;;;;;;;;;;;;;;6130297;23;19916;-92
2023/05/19 16:13:18;;;;;;;;;;;;;;;;;;6130305;23;20274;-92
2023/05/19 16:15:44;;;;;;;;;;;;;;;;;;6156347;23;19956;-94
2023/05/19 16:18:10;;;;;;;;;;;;;;;;;;6155404;23;19917;-93
2023/05/19 16:20:36;;;;;;;;;;;;;;;;;;6154441;23;19927;-93
2023/05/19 16:23:03;;;;;;;;;;;;;;;;;;6153165;23;19964;-93
2023/05/19 16:25:29;;;;;;;;;;;;;;;;;;6154709;23;19916;-93
2023/05/19 16:27:55;;;;;;;;;;;;;;;;;;6130186;23;19939;-93
2023/05/19 16:30:21;;;;;;;;;;;;;;;;;;6130567;23;19916;-94
2023/05/19 16:32:47;;;;;;;;;;;;;;;;;;6130270;23;19917;-93
2023/05/19 16:35:13;;;;;;;;;;;;;;;;;;6129395;23;19991;-93
2023/05/19 16:37:39;;;;;;;;;;;;;;;;;;6129731;23;19963;-93
2023/05/19 16:40:05;;;;;;;;;;;;;;;;;;6129852;23;20039;-94